createdAt,value
2023-05-15T00:00:02.501Z,11.99
2023-05-15T00:01:02.517Z,11.99
2023-05-15T00:02:02.473Z,11.99
2023-05-15T00:03:03.385Z,11.93
2023-05-15T00:04:02.331Z,11.95
2023-05-15T00:05:02.378Z,11.91
2023-05-15T00:06:02.331Z,11.91
2023-05-15T00:07:02.447Z,11.95
2023-05-15T00:08:02.473Z,11.91
2023-05-15T00:09:02.291Z,11.88
2023-05-15T00:10:02.650Z,11.88
2023-05-15T00:11:02.453Z,11.95
2023-05-15T00:12:02.346Z,11.93
2023-05-15T00:13:02.596Z,11.89
2023-05-15T00:14:02.364Z,11.91
2023-05-15T00:15:02.266Z,11.88
2023-05-15T00:16:02.562Z,11.88
2023-05-15T00:17:02.634Z,11.93
2023-05-15T00:18:02.670Z,11.91
2023-05-15T00:19:02.776Z,11.95
2023-05-15T00:20:02.395Z,12.00
2023-05-15T00:21:02.235Z,12.04
2023-05-15T00:22:02.197Z,12.10
2023-05-15T00:23:02.313Z,12.08
2023-05-15T00:24:02.423Z,12.10
2023-05-15T00:25:02.671Z,12.07
2023-05-15T00:26:02.225Z,12.08
2023-05-15T00:27:02.231Z,12.07
2023-05-15T00:28:02.467Z,12.07
2023-05-15T00:29:02.241Z,12.00
2023-05-15T00:30:02.271Z,11.97
2023-05-15T00:31:02.577Z,11.93
2023-05-15T00:32:02.173Z,11.93
2023-05-15T00:33:02.169Z,11.87
2023-05-15T00:34:02.243Z,11.80
2023-05-15T00:35:02.186Z,11.79
2023-05-15T00:36:02.153Z,11.73
2023-05-15T00:37:02.173Z,11.73
2023-05-15T00:38:02.187Z,11.67
2023-05-15T00:39:02.076Z,11.61
2023-05-15T00:40:02.217Z,11.59
2023-05-15T00:41:02.222Z,11.58
2023-05-15T00:42:02.424Z,11.55
2023-05-15T00:43:02.151Z,11.59
2023-05-15T00:44:02.263Z,11.58
2023-05-15T00:45:02.058Z,11.59
2023-05-15T00:46:02.056Z,11.62
2023-05-15T00:47:02.187Z,11.61
2023-05-15T00:48:02.212Z,11.61
2023-05-15T00:49:02.199Z,11.55
2023-05-15T00:50:02.257Z,11.58
2023-05-15T00:51:01.998Z,11.51
2023-05-15T00:52:02.324Z,11.54
2023-05-15T00:53:02.368Z,11.48
2023-05-15T00:54:02.447Z,11.52
2023-05-15T00:55:02.274Z,11.43
2023-05-15T00:56:02.002Z,11.43
2023-05-15T00:57:02.429Z,11.43
2023-05-15T00:58:02.449Z,11.40
2023-05-15T00:59:02.049Z,11.37
2023-05-15T01:00:01.990Z,11.37
2023-05-15T01:01:01.987Z,11.34
2023-05-15T01:02:02.036Z,11.34
2023-05-15T01:03:02.189Z,11.31
2023-05-15T01:04:02.136Z,11.30
2023-05-15T01:05:02.189Z,11.28
2023-05-15T01:06:02.327Z,11.23
2023-05-15T01:07:02.331Z,11.23
2023-05-15T01:08:01.921Z,11.23
2023-05-15T01:09:02.280Z,11.20
2023-05-15T01:10:02.257Z,11.19
2023-05-15T01:11:02.682Z,11.16
2023-05-15T01:12:02.569Z,11.19
2023-05-15T01:13:02.675Z,11.16
2023-05-15T01:14:02.691Z,11.16
2023-05-15T01:15:02.717Z,11.18
2023-05-15T01:16:02.487Z,11.16
2023-05-15T01:17:01.862Z,11.13
2023-05-15T01:18:01.895Z,11.15
2023-05-15T01:19:02.107Z,11.16
2023-05-15T01:20:02.600Z,11.19
2023-05-15T01:21:01.875Z,11.16
2023-05-15T01:22:01.915Z,11.16
2023-05-15T01:23:02.640Z,11.12
2023-05-15T01:24:01.835Z,11.15
2023-05-15T01:25:01.849Z,11.12
2023-05-15T01:26:01.939Z,11.13
2023-05-15T01:27:02.762Z,11.13
2023-05-15T01:28:01.862Z,11.12
2023-05-15T01:29:02.065Z,11.11
2023-05-15T01:30:01.786Z,11.11
2023-05-15T01:31:02.514Z,11.09
2023-05-15T01:32:01.806Z,11.11
2023-05-15T01:33:01.803Z,11.12
2023-05-15T01:34:01.805Z,11.13
2023-05-15T01:35:02.017Z,11.11
2023-05-15T01:36:01.735Z,11.11
2023-05-15T01:37:01.706Z,11.15
2023-05-15T01:38:01.719Z,11.12
2023-05-15T01:39:01.940Z,11.13
2023-05-15T01:40:01.845Z,11.11
2023-05-15T01:41:01.686Z,11.12
2023-05-15T01:42:02.266Z,11.12
2023-05-15T01:43:01.676Z,11.08
2023-05-15T01:44:02.655Z,11.11
2023-05-15T01:45:01.686Z,11.11
2023-05-15T01:46:01.694Z,11.11
2023-05-15T01:47:01.660Z,11.11
2023-05-15T01:48:01.747Z,11.11
2023-05-15T01:49:01.916Z,11.13
2023-05-15T01:50:01.939Z,11.16
2023-05-15T01:51:01.817Z,11.16
2023-05-15T01:52:02.032Z,11.19
2023-05-15T01:53:01.836Z,11.20
2023-05-15T01:54:01.626Z,11.20
2023-05-15T01:55:02.161Z,11.20
2023-05-15T01:56:01.752Z,11.23
2023-05-15T01:57:02.056Z,11.25
2023-05-15T01:58:01.669Z,11.27
2023-05-15T01:59:01.576Z,11.27
2023-05-15T02:00:01.599Z,11.28
2023-05-15T02:01:01.584Z,11.28
2023-05-15T02:02:01.704Z,11.30
2023-05-15T02:03:01.778Z,11.30
2023-05-15T02:04:01.741Z,11.27
2023-05-15T02:05:01.528Z,11.25
2023-05-15T02:06:01.954Z,11.22
2023-05-15T02:07:01.554Z,11.19
2023-05-15T02:08:01.526Z,11.11
2023-05-15T02:09:01.636Z,11.03
2023-05-15T02:10:01.947Z,11.01
2023-05-15T02:11:01.554Z,11.00
2023-05-15T02:12:01.755Z,10.97
2023-05-15T02:13:01.566Z,10.94
2023-05-15T02:14:01.585Z,10.90
2023-05-15T02:15:01.570Z,10.83
2023-05-15T02:16:01.542Z,10.83
2023-05-15T02:17:01.487Z,10.78
2023-05-15T02:18:01.660Z,10.82
2023-05-15T02:19:02.006Z,10.82
2023-05-15T02:20:01.512Z,10.87
2023-05-15T02:21:01.438Z,10.91
2023-05-15T02:22:01.426Z,10.95
2023-05-15T02:23:01.446Z,11.01
2023-05-15T02:24:01.449Z,11.04
2023-05-15T02:25:01.448Z,11.00
2023-05-15T02:26:01.464Z,10.95
2023-05-15T02:27:01.371Z,10.93
2023-05-15T02:28:01.406Z,10.90
2023-05-15T02:29:01.397Z,10.83
2023-05-15T02:30:01.398Z,10.82
2023-05-15T02:31:01.492Z,10.80
2023-05-15T02:32:01.599Z,10.82
2023-05-15T02:33:01.598Z,10.86
2023-05-15T02:34:01.398Z,10.90
2023-05-15T02:35:01.720Z,10.87
2023-05-15T02:36:01.321Z,10.87
2023-05-15T02:37:01.420Z,10.85
2023-05-15T02:38:01.741Z,10.80
2023-05-15T02:39:01.840Z,10.80
2023-05-15T02:40:01.335Z,10.82
2023-05-15T02:41:01.655Z,10.83
2023-05-15T02:42:01.671Z,10.86
2023-05-15T02:43:01.265Z,10.87
2023-05-15T02:44:01.367Z,10.87
2023-05-15T02:45:01.295Z,10.90
2023-05-15T02:46:01.319Z,10.94
2023-05-15T02:47:01.299Z,10.87
2023-05-15T02:48:01.288Z,10.86
2023-05-15T02:49:01.302Z,10.90
2023-05-15T02:50:01.307Z,10.86
2023-05-15T02:51:01.318Z,10.80
2023-05-15T02:52:01.221Z,10.76
2023-05-15T02:53:01.333Z,10.75
2023-05-15T02:54:01.335Z,10.68
2023-05-15T02:55:01.349Z,10.64
2023-05-15T02:56:01.168Z,10.58
2023-05-15T02:57:01.254Z,10.54
2023-05-15T02:58:01.165Z,10.46
2023-05-15T02:59:01.291Z,10.43
2023-05-15T03:00:01.398Z,10.38
2023-05-15T03:01:01.238Z,10.34
2023-05-15T03:02:01.205Z,10.31
2023-05-15T03:03:01.299Z,10.30
2023-05-15T03:04:01.332Z,10.31
2023-05-15T03:05:01.143Z,10.28
2023-05-15T03:06:01.233Z,10.30
2023-05-15T03:07:01.546Z,10.28
2023-05-15T03:08:01.337Z,10.31
2023-05-15T03:09:01.242Z,10.26
2023-05-15T03:10:01.551Z,10.26
2023-05-15T03:11:01.558Z,10.24
2023-05-15T03:12:01.150Z,10.20
2023-05-15T03:13:01.466Z,10.21
2023-05-15T03:14:01.604Z,10.17
2023-05-15T03:15:01.071Z,10.14
2023-05-15T03:16:01.398Z,10.12
2023-05-15T03:17:01.664Z,10.14
2023-05-15T03:18:01.639Z,10.10
2023-05-15T03:19:01.048Z,10.12
2023-05-15T03:20:01.016Z,10.12
2023-05-15T03:21:01.643Z,10.10
2023-05-15T03:22:01.230Z,10.06
2023-05-15T03:23:01.064Z,10.06
2023-05-15T03:24:01.646Z,10.05
2023-05-15T03:25:01.048Z,10.05
2023-05-15T03:26:01.068Z,10.06
2023-05-15T03:27:00.963Z,10.02
2023-05-15T03:28:01.083Z,10.01
2023-05-15T03:29:00.984Z,9.93
2023-05-15T03:30:01.175Z,9.94
2023-05-15T03:31:01.214Z,9.93
2023-05-15T03:34:52.884Z,9.90
2023-05-15T03:38:44.863Z,9.83
2023-05-15T03:39:44.784Z,9.78
2023-05-15T03:40:44.794Z,9.81
2023-05-15T03:41:44.756Z,9.80
2023-05-15T03:42:44.900Z,9.83
2023-05-15T03:43:44.882Z,9.85
2023-05-15T03:44:45.552Z,9.83
2023-05-15T03:45:45.044Z,9.84
2023-05-15T03:46:44.748Z,9.78
2023-05-15T03:49:15.513Z,9.81
2023-05-15T03:50:10.800Z,9.88
2023-05-15T03:51:10.749Z,9.96
2023-05-15T03:52:10.730Z,10.03
2023-05-15T03:53:10.735Z,10.02
2023-05-15T03:54:10.672Z,10.08
2023-05-15T03:55:10.821Z,10.10
2023-05-15T03:56:10.702Z,10.10
2023-05-15T03:57:11.077Z,10.10
2023-05-15T03:58:10.792Z,10.16
2023-05-15T03:59:10.804Z,10.17
2023-05-15T04:00:12.124Z,10.16
2023-05-15T04:01:10.824Z,10.21
2023-05-15T04:02:10.690Z,10.20
2023-05-15T04:03:10.969Z,10.21
2023-05-15T04:04:10.739Z,10.23
2023-05-15T04:05:10.842Z,10.27
2023-05-15T04:06:10.707Z,10.28
2023-05-15T04:07:12.119Z,10.31
2023-05-15T04:08:10.586Z,10.34
2023-05-15T04:09:10.845Z,10.38
2023-05-15T04:10:10.882Z,10.43
2023-05-15T04:11:10.876Z,10.45
2023-05-15T04:12:10.636Z,10.48
2023-05-15T04:13:10.991Z,10.55
2023-05-15T04:14:11.006Z,10.52
2023-05-15T04:15:10.519Z,10.58
2023-05-15T04:16:10.632Z,10.57
2023-05-15T04:17:10.508Z,10.60
2023-05-15T04:18:11.036Z,10.61
2023-05-15T04:19:10.733Z,10.65
2023-05-15T04:20:10.541Z,10.67
2023-05-15T04:21:10.534Z,10.67
2023-05-15T04:22:10.482Z,10.75
2023-05-15T04:23:10.681Z,10.76
2023-05-15T04:24:10.476Z,10.79
2023-05-15T04:25:10.535Z,10.79
2023-05-15T04:26:10.725Z,10.85
2023-05-15T04:27:10.633Z,10.83
2023-05-15T04:28:10.708Z,10.85
2023-05-15T04:29:10.699Z,10.91
2023-05-15T04:30:10.569Z,10.91
2023-05-15T04:31:10.402Z,10.93
2023-05-15T04:32:11.110Z,10.94
2023-05-15T04:33:11.127Z,10.97
2023-05-15T04:34:10.889Z,10.98
2023-05-15T04:35:11.226Z,11.04
2023-05-15T04:36:10.716Z,11.05
2023-05-15T04:37:10.474Z,11.08
2023-05-15T04:38:11.872Z,11.11
2023-05-15T04:39:10.537Z,11.18
2023-05-15T04:40:10.761Z,11.18
2023-05-15T04:41:10.998Z,11.19
2023-05-15T04:42:11.167Z,11.25
2023-05-15T04:43:11.333Z,11.30
2023-05-15T04:44:10.724Z,11.34
2023-05-15T04:45:10.970Z,11.34
2023-05-15T04:46:10.685Z,11.34
2023-05-15T04:47:10.440Z,11.41
2023-05-15T04:48:10.666Z,11.43
2023-05-15T04:49:10.319Z,11.48
2023-05-15T04:50:10.331Z,11.52
2023-05-15T04:51:10.321Z,11.58
2023-05-15T04:52:10.400Z,11.64
2023-05-15T04:53:10.373Z,11.69
2023-05-15T04:54:10.400Z,11.71
2023-05-15T04:55:10.561Z,11.74
2023-05-15T04:56:10.705Z,11.79
2023-05-15T04:57:10.233Z,11.84
2023-05-15T04:58:10.415Z,11.88
2023-05-15T04:59:10.790Z,11.91
2023-05-15T05:00:10.855Z,11.97
2023-05-15T05:01:10.254Z,12.03
2023-05-15T05:02:10.227Z,12.07
2023-05-15T05:03:10.371Z,12.10
2023-05-15T05:04:10.357Z,12.15
2023-05-15T05:05:10.286Z,12.22
2023-05-15T05:06:10.234Z,12.22
2023-05-15T05:07:10.512Z,12.26
2023-05-15T05:08:10.536Z,12.29
2023-05-15T05:09:10.234Z,12.33
2023-05-15T05:10:10.217Z,12.35
2023-05-15T05:11:10.323Z,12.38
2023-05-15T05:12:10.739Z,12.44
2023-05-15T05:13:10.480Z,12.48
2023-05-15T05:14:10.279Z,12.53
2023-05-15T05:15:10.622Z,12.55
2023-05-15T05:16:10.728Z,12.59
2023-05-15T05:17:10.110Z,12.65
2023-05-15T05:18:10.310Z,12.72
2023-05-15T05:19:10.210Z,12.76
2023-05-15T05:20:12.667Z,12.80
2023-05-15T05:21:10.074Z,12.86
2023-05-15T05:22:10.161Z,12.87
2023-05-15T05:23:10.153Z,12.90
2023-05-15T05:24:10.180Z,12.95
2023-05-15T05:25:10.084Z,12.99
2023-05-15T05:26:10.209Z,13.05
2023-05-15T05:27:10.232Z,13.08
2023-05-15T05:28:10.265Z,13.11
2023-05-15T05:29:10.253Z,13.13
2023-05-15T05:30:10.268Z,13.14
2023-05-15T05:31:10.287Z,13.11
2023-05-15T05:32:10.263Z,13.14
2023-05-15T05:33:10.090Z,13.13
2023-05-15T05:34:10.332Z,13.14
2023-05-15T05:35:10.352Z,13.20
2023-05-15T05:36:10.416Z,13.23
2023-05-15T05:37:10.063Z,13.21
2023-05-15T05:38:10.379Z,13.14
2023-05-15T05:39:09.989Z,13.09
2023-05-15T05:40:10.400Z,13.06
2023-05-15T05:41:09.967Z,13.02
2023-05-15T05:42:10.462Z,13.05
2023-05-15T05:43:09.992Z,13.04
2023-05-15T05:44:10.433Z,13.05
2023-05-15T05:45:10.487Z,13.05
2023-05-15T05:46:09.913Z,12.95
2023-05-15T05:47:10.559Z,12.93
2023-05-15T05:48:09.974Z,12.95
2023-05-15T05:49:09.951Z,12.87
2023-05-15T05:50:10.005Z,12.88
2023-05-15T05:51:10.083Z,12.86
2023-05-15T05:52:09.964Z,12.87
2023-05-15T05:53:09.947Z,12.87
2023-05-15T05:54:09.863Z,12.83
2023-05-15T05:55:09.888Z,12.84
2023-05-15T05:56:09.990Z,12.86
2023-05-15T05:57:10.076Z,12.88
2023-05-15T05:58:18.346Z,12.81
2023-05-15T05:59:09.900Z,12.77
2023-05-15T06:00:10.179Z,12.72
2023-05-15T06:01:11.348Z,12.62
2023-05-15T06:02:10.191Z,12.53
2023-05-15T06:03:10.196Z,12.48
2023-05-15T06:04:09.950Z,12.51
2023-05-15T06:05:10.078Z,12.54
2023-05-15T06:06:10.453Z,12.51
2023-05-15T06:07:10.214Z,12.58
2023-05-15T06:08:09.812Z,12.53
2023-05-15T06:09:10.462Z,12.59
2023-05-15T06:10:10.473Z,12.62
2023-05-15T06:11:09.809Z,12.63
2023-05-15T06:12:09.881Z,12.59
2023-05-15T06:13:09.810Z,12.61
2023-05-15T06:14:11.244Z,12.61
2023-05-15T06:15:09.848Z,12.62
2023-05-15T06:16:09.828Z,12.61
2023-05-15T06:17:09.890Z,12.59
2023-05-15T06:18:09.862Z,12.59
2023-05-15T06:19:09.827Z,12.61
2023-05-15T06:20:09.878Z,12.59
2023-05-15T06:21:09.938Z,12.59
2023-05-15T06:22:10.022Z,12.62
2023-05-15T06:23:10.038Z,12.55
2023-05-15T06:24:09.779Z,12.51
2023-05-15T06:25:10.087Z,12.55
2023-05-15T06:26:10.068Z,12.53
2023-05-15T06:27:10.254Z,12.54
2023-05-15T06:28:10.316Z,12.55
2023-05-15T06:29:09.929Z,12.61
2023-05-15T06:30:09.743Z,12.51
2023-05-15T06:31:10.219Z,12.44
2023-05-15T06:32:10.215Z,12.50
2023-05-15T06:33:09.810Z,12.62
2023-05-15T06:34:09.624Z,12.69
2023-05-15T06:35:09.600Z,12.72
2023-05-15T06:36:09.757Z,12.73
2023-05-15T06:37:09.593Z,12.73
2023-05-15T06:38:09.606Z,12.80
2023-05-15T06:39:09.610Z,12.84
2023-05-15T06:40:09.621Z,12.84
2023-05-15T06:41:11.068Z,12.87
2023-05-15T06:42:09.554Z,12.98
2023-05-15T06:43:09.584Z,12.96
2023-05-15T06:44:09.637Z,13.01
2023-05-15T06:45:09.588Z,13.04
2023-05-15T06:46:09.702Z,13.14
2023-05-15T06:47:09.769Z,13.19
2023-05-15T06:48:09.650Z,13.24
2023-05-15T06:49:09.502Z,13.29
2023-05-15T06:50:09.539Z,13.39
2023-05-15T06:51:09.593Z,13.45
2023-05-15T06:52:09.557Z,13.55
2023-05-15T06:53:10.159Z,13.63
2023-05-15T06:54:09.503Z,13.68
2023-05-15T06:55:09.712Z,13.68
2023-05-15T06:56:09.745Z,13.60
2023-05-15T06:57:09.756Z,13.67
2023-05-15T06:58:09.778Z,13.73
2023-05-15T06:59:09.775Z,13.86
2023-05-15T07:00:09.559Z,13.91
2023-05-15T07:01:09.594Z,13.91
2023-05-15T07:02:09.814Z,14.00
2023-05-15T07:03:09.953Z,14.11
2023-05-15T07:04:09.413Z,14.01
2023-05-15T07:05:09.991Z,14.05
2023-05-15T07:06:09.471Z,14.13
2023-05-15T07:07:10.094Z,14.16
2023-05-15T07:08:10.003Z,14.13
2023-05-15T07:09:09.400Z,14.23
2023-05-15T07:10:09.523Z,14.33
2023-05-15T07:11:09.927Z,14.30
2023-05-15T07:12:09.548Z,14.26
2023-05-15T07:13:09.922Z,14.23
2023-05-15T07:14:09.330Z,14.23
2023-05-15T07:15:09.833Z,14.31
2023-05-15T07:16:09.366Z,14.36
2023-05-15T07:17:09.591Z,14.41
2023-05-15T07:18:09.405Z,14.46
2023-05-15T07:19:09.399Z,14.56
2023-05-15T07:20:09.536Z,14.51
2023-05-15T07:21:09.308Z,14.53
2023-05-15T07:22:09.619Z,14.51
2023-05-15T07:23:09.311Z,14.45
2023-05-15T07:24:09.707Z,14.49
2023-05-15T07:25:09.808Z,14.61
2023-05-15T07:26:16.793Z,14.59
2023-05-15T07:27:09.617Z,14.61
2023-05-15T07:28:09.539Z,14.63
2023-05-15T07:30:10.032Z,14.61
2023-05-15T07:31:09.593Z,14.67
2023-05-15T07:32:09.278Z,14.58
2023-05-15T07:33:09.225Z,14.55
2023-05-15T07:34:10.018Z,14.53
2023-05-15T07:35:10.250Z,14.53
2023-05-15T07:36:09.198Z,14.55
2023-05-15T07:37:09.478Z,14.45
2023-05-15T07:38:09.251Z,14.44
2023-05-15T07:39:09.240Z,14.49
2023-05-15T07:40:09.218Z,14.56
2023-05-15T07:41:09.232Z,14.61
2023-05-15T07:42:09.240Z,14.63
2023-05-15T07:43:09.298Z,14.74
2023-05-15T07:44:09.246Z,14.82
2023-05-15T07:45:09.141Z,14.70
2023-05-15T07:46:09.342Z,14.66
2023-05-15T07:47:09.155Z,14.77
2023-05-15T07:48:09.212Z,14.74
2023-05-15T07:49:09.273Z,14.82
2023-05-15T07:50:09.196Z,14.85
2023-05-15T07:51:09.291Z,14.89
2023-05-15T07:52:09.110Z,14.95
2023-05-15T07:53:09.072Z,15.01
2023-05-15T07:54:09.244Z,15.04
2023-05-15T07:55:09.099Z,14.96
2023-05-15T07:56:09.301Z,14.87
2023-05-15T07:57:09.339Z,14.86
2023-05-15T07:58:09.308Z,15.01
2023-05-15T07:59:09.083Z,15.11
2023-05-15T08:00:09.335Z,15.19
2023-05-15T08:01:09.031Z,15.36
2023-05-15T08:02:09.381Z,15.50
2023-05-15T08:03:09.558Z,15.72
2023-05-15T08:04:09.423Z,15.77
2023-05-15T08:05:09.171Z,15.83
2023-05-15T08:06:08.983Z,15.68
2023-05-15T08:07:09.161Z,15.50
2023-05-15T08:08:09.020Z,15.36
2023-05-15T08:09:09.026Z,15.23
2023-05-15T08:10:09.082Z,15.33
2023-05-15T08:11:09.000Z,15.38
2023-05-15T08:12:09.315Z,15.54
2023-05-15T08:13:09.042Z,15.66
2023-05-15T08:14:10.574Z,15.73
2023-05-15T08:15:09.250Z,15.77
2023-05-15T08:16:09.241Z,15.66
2023-05-15T08:17:09.227Z,15.45
2023-05-15T08:18:09.375Z,15.43
2023-05-15T08:19:08.989Z,15.47
2023-05-15T08:20:08.958Z,15.60
2023-05-15T08:21:09.055Z,15.84
2023-05-15T08:22:09.066Z,15.95
2023-05-15T08:23:09.128Z,15.87
2023-05-15T08:24:09.170Z,15.90
2023-05-15T08:25:09.269Z,15.88
2023-05-15T08:26:09.270Z,15.68
2023-05-15T08:27:09.242Z,15.60
2023-05-15T08:28:09.259Z,15.48
2023-05-15T08:29:09.113Z,15.60
2023-05-15T08:30:08.807Z,15.73
2023-05-15T08:31:09.293Z,15.68
2023-05-15T08:32:09.313Z,15.62
2023-05-15T08:33:09.381Z,15.52
2023-05-15T08:34:08.835Z,15.48
2023-05-15T08:35:10.313Z,15.59
2023-05-15T08:36:09.014Z,15.78
2023-05-15T08:37:08.957Z,15.87
2023-05-15T08:38:09.029Z,15.95
2023-05-15T08:39:08.880Z,15.85
2023-05-15T08:40:09.099Z,15.95
2023-05-15T08:41:09.203Z,15.93
2023-05-15T08:42:09.207Z,15.99
2023-05-15T08:43:08.804Z,16.03
2023-05-15T08:44:08.969Z,16.14
2023-05-15T08:45:09.544Z,16.17
2023-05-15T08:46:08.883Z,16.16
2023-05-15T08:47:09.008Z,16.13
2023-05-15T08:48:08.799Z,16.10
2023-05-15T08:49:08.952Z,15.98
2023-05-15T08:50:08.877Z,16.06
2023-05-15T08:51:10.193Z,16.16
2023-05-15T08:52:08.914Z,16.32
2023-05-15T08:53:08.703Z,16.44
2023-05-15T08:54:08.991Z,16.46
2023-05-15T08:55:08.965Z,16.29
2023-05-15T08:56:08.666Z,16.29
2023-05-15T08:57:08.945Z,16.39
2023-05-15T08:58:08.643Z,16.40
2023-05-15T08:59:09.520Z,16.44
2023-05-15T09:00:09.476Z,16.55
2023-05-15T09:01:08.624Z,16.65
2023-05-15T09:02:09.635Z,16.82
2023-05-15T09:03:08.986Z,17.01
2023-05-15T09:04:09.609Z,17.10
2023-05-15T09:05:09.521Z,17.06
2023-05-15T09:06:10.144Z,16.97
2023-05-15T09:07:09.287Z,16.92
2023-05-15T09:08:09.486Z,16.94
2023-05-15T09:09:09.605Z,17.06
2023-05-15T09:10:08.629Z,16.88
2023-05-15T09:11:08.980Z,16.84
2023-05-15T09:12:09.339Z,16.90
2023-05-15T09:13:08.607Z,16.84
2023-05-15T09:14:09.307Z,16.88
2023-05-15T09:15:08.601Z,16.97
2023-05-15T09:16:08.634Z,17.10
2023-05-15T09:17:08.707Z,17.30
2023-05-15T09:18:08.626Z,17.53
2023-05-15T09:19:08.719Z,17.47
2023-05-15T09:20:08.735Z,17.45
2023-05-15T09:21:08.601Z,17.39
2023-05-15T09:22:08.665Z,17.17
2023-05-15T09:23:08.858Z,16.98
2023-05-15T09:24:08.668Z,16.95
2023-05-15T09:25:08.479Z,17.19
2023-05-15T09:26:08.490Z,17.24
2023-05-15T09:27:08.489Z,17.06
2023-05-15T09:28:08.582Z,17.06
2023-05-15T09:29:08.486Z,17.01
2023-05-15T09:30:09.263Z,17.06
2023-05-15T09:31:08.510Z,17.12
2023-05-15T09:32:08.579Z,17.10
2023-05-15T09:33:08.506Z,17.12
2023-05-15T09:34:08.596Z,17.20
2023-05-15T09:35:08.483Z,17.24
2023-05-15T09:36:08.458Z,17.34
2023-05-15T09:37:08.473Z,17.32
2023-05-15T09:38:08.454Z,17.45
2023-05-15T09:39:08.558Z,17.59
2023-05-15T09:40:08.484Z,17.54
2023-05-15T09:41:08.499Z,17.54
2023-05-15T09:42:08.384Z,17.76
2023-05-15T09:43:08.545Z,17.78
2023-05-15T09:44:09.864Z,17.63
2023-05-15T09:45:08.553Z,17.62
2023-05-15T09:46:08.772Z,17.50
2023-05-15T09:47:08.459Z,17.38
2023-05-15T09:48:08.678Z,17.45
2023-05-15T09:49:08.409Z,17.59
2023-05-15T09:50:08.495Z,17.71
2023-05-15T09:51:08.321Z,17.73
2023-05-15T09:52:08.287Z,17.86
2023-05-15T09:53:08.708Z,17.75
2023-05-15T09:54:08.647Z,17.73
2023-05-15T09:55:08.513Z,17.53
2023-05-15T09:56:08.276Z,17.19
2023-05-15T09:57:08.286Z,17.17
2023-05-15T09:58:08.723Z,17.37
2023-05-15T09:59:08.397Z,17.43
2023-05-15T10:00:08.280Z,17.22
2023-05-15T10:01:08.558Z,17.14
2023-05-15T10:02:08.212Z,17.14
2023-05-15T10:03:08.867Z,17.04
2023-05-15T10:04:08.218Z,17.12
2023-05-15T10:05:08.847Z,17.24
2023-05-15T10:06:08.971Z,17.30
2023-05-15T10:07:08.847Z,17.27
2023-05-15T10:08:08.316Z,17.37
2023-05-15T10:09:08.576Z,17.72
2023-05-15T10:10:08.874Z,18.01
2023-05-15T10:11:08.883Z,18.27
2023-05-15T10:12:08.928Z,18.18
2023-05-15T10:13:08.499Z,17.97
2023-05-15T10:14:09.651Z,17.68
2023-05-15T10:15:08.212Z,17.65
2023-05-15T10:16:08.418Z,17.72
2023-05-15T10:17:08.253Z,17.76
2023-05-15T10:18:08.412Z,17.71
2023-05-15T10:19:08.299Z,17.81
2023-05-15T10:20:08.163Z,18.02
2023-05-15T10:21:08.307Z,17.90
2023-05-15T10:22:08.232Z,18.11
2023-05-15T10:23:09.582Z,18.20
2023-05-15T10:24:08.238Z,18.45
2023-05-15T10:25:08.408Z,18.66
2023-05-15T10:26:08.058Z,18.23
2023-05-15T10:27:08.569Z,18.09
2023-05-15T10:28:08.056Z,17.83
2023-05-15T10:29:08.606Z,17.46
2023-05-15T10:30:08.488Z,17.35
2023-05-15T10:31:08.301Z,17.37
2023-05-15T10:32:08.736Z,17.37
2023-05-15T10:33:08.850Z,17.30
2023-05-15T10:34:08.853Z,17.32
2023-05-15T10:35:08.158Z,17.39
2023-05-15T10:36:08.535Z,17.43
2023-05-15T10:37:07.978Z,17.66
2023-05-15T10:38:08.027Z,17.59
2023-05-15T10:39:08.898Z,17.73
2023-05-15T10:40:08.083Z,17.75
2023-05-15T10:41:17.159Z,17.81
2023-05-15T10:42:08.049Z,18.01
2023-05-15T10:43:07.964Z,18.30
2023-05-15T10:44:07.980Z,18.54
2023-05-15T10:45:07.960Z,18.54
2023-05-15T10:46:08.094Z,18.74
2023-05-15T10:47:08.170Z,18.48
2023-05-15T10:48:08.156Z,18.08
2023-05-15T10:49:08.221Z,18.43
2023-05-15T10:50:08.048Z,18.76
2023-05-15T10:51:09.499Z,19.16
2023-05-15T10:52:08.388Z,19.16
2023-05-15T10:53:08.198Z,19.24
2023-05-15T10:54:07.918Z,18.68
2023-05-15T10:55:07.905Z,18.36
2023-05-15T10:56:08.785Z,18.60
2023-05-15T10:57:07.855Z,18.74
2023-05-15T10:58:09.372Z,19.04
2023-05-15T10:59:07.914Z,19.39
2023-05-15T11:00:07.868Z,19.38
2023-05-15T11:01:07.961Z,19.09
2023-05-15T11:02:09.286Z,19.15
2023-05-15T11:03:07.944Z,18.88
2023-05-15T11:04:07.963Z,19.00
2023-05-15T11:05:07.985Z,19.08
2023-05-15T11:06:07.987Z,19.13
2023-05-15T11:07:07.852Z,19.26
2023-05-15T11:08:09.243Z,19.35
2023-05-15T11:09:08.046Z,19.31
2023-05-15T11:10:07.983Z,19.39
2023-05-15T11:11:07.949Z,19.22
2023-05-15T11:12:08.010Z,19.30
2023-05-15T11:13:07.757Z,19.17
2023-05-15T11:14:07.796Z,19.04
2023-05-15T11:15:07.794Z,19.19
2023-05-15T11:16:07.845Z,19.37
2023-05-15T11:17:08.065Z,19.38
2023-05-15T11:18:07.909Z,19.38
2023-05-15T11:19:07.844Z,19.32
2023-05-15T11:20:08.069Z,19.20
2023-05-15T11:21:07.894Z,19.17
2023-05-15T11:22:07.975Z,19.41
2023-05-15T11:23:08.170Z,19.74
2023-05-15T11:24:09.173Z,20.22
2023-05-15T11:25:07.879Z,20.41
2023-05-15T11:26:07.945Z,20.18
2023-05-15T11:27:07.755Z,19.84
2023-05-15T11:28:08.141Z,19.75
2023-05-15T11:29:07.696Z,19.78
2023-05-15T11:30:07.696Z,19.90
2023-05-15T11:31:07.789Z,19.89
2023-05-15T11:32:08.357Z,19.81
2023-05-15T11:33:07.811Z,20.02
2023-05-15T11:34:08.233Z,20.26
2023-05-15T11:35:08.314Z,20.12
2023-05-15T11:36:07.742Z,20.07
2023-05-15T11:37:08.297Z,20.65
2023-05-15T11:38:07.622Z,20.98
2023-05-15T11:39:08.365Z,20.83
2023-05-15T11:40:08.379Z,20.92
2023-05-15T11:41:07.882Z,20.97
2023-05-15T11:42:07.718Z,21.28
2023-05-15T11:43:07.706Z,20.95
2023-05-15T11:44:07.672Z,21.03
2023-05-15T11:45:07.556Z,21.34
2023-05-15T11:46:07.890Z,21.59
2023-05-15T11:47:07.847Z,21.60
2023-05-15T11:48:07.845Z,21.35
2023-05-15T11:49:07.958Z,21.11
2023-05-15T11:50:08.026Z,21.13
2023-05-15T11:51:07.787Z,21.22
2023-05-15T11:52:07.585Z,21.26
2023-05-15T11:53:07.730Z,21.03
2023-05-15T11:54:08.214Z,21.23
2023-05-15T11:55:08.400Z,21.41
2023-05-15T11:56:08.024Z,21.71
2023-05-15T11:57:08.375Z,21.82
2023-05-15T11:58:08.498Z,22.04
2023-05-15T11:59:08.417Z,22.03
2023-05-15T12:00:07.652Z,21.69
2023-05-15T12:01:09.764Z,21.48
2023-05-15T12:02:08.352Z,21.73
2023-05-15T12:03:08.436Z,21.97
2023-05-15T12:04:09.121Z,21.73
2023-05-15T12:05:08.911Z,21.58
2023-05-15T12:06:08.219Z,21.48
2023-05-15T12:07:07.555Z,21.48
2023-05-15T12:08:07.406Z,21.45
2023-05-15T12:09:07.542Z,20.83
2023-05-15T12:10:07.410Z,20.93
2023-05-15T12:11:07.387Z,21.37
2023-05-15T12:12:07.423Z,21.69
2023-05-15T12:13:08.829Z,21.80
2023-05-15T12:14:07.357Z,22.09
2023-05-15T12:15:07.353Z,22.16
2023-05-15T12:16:07.663Z,22.06
2023-05-15T12:17:07.357Z,22.16
2023-05-15T12:18:07.424Z,22.15
2023-05-15T12:19:07.364Z,22.33
2023-05-15T12:20:07.390Z,22.25
2023-05-15T12:21:07.474Z,22.36
2023-05-15T12:22:07.395Z,22.36
2023-05-15T12:23:07.311Z,21.90
2023-05-15T12:24:08.380Z,21.78
2023-05-15T12:25:07.462Z,21.69
2023-05-15T12:26:07.336Z,21.58
2023-05-15T12:27:07.411Z,21.43
2023-05-15T12:28:07.269Z,21.62
2023-05-15T12:29:07.403Z,21.88
2023-05-15T12:30:07.298Z,22.13
2023-05-15T12:31:07.450Z,22.30
2023-05-15T12:32:08.904Z,22.27
2023-05-15T12:33:07.387Z,22.04
2023-05-15T12:34:07.288Z,21.65
2023-05-15T12:35:07.474Z,21.59
2023-05-15T12:36:07.485Z,21.62
2023-05-15T12:37:07.512Z,21.78
2023-05-15T12:38:07.503Z,21.77
2023-05-15T12:39:07.238Z,21.66
2023-05-15T12:40:07.271Z,21.56
2023-05-15T12:41:07.515Z,21.40
2023-05-15T12:42:07.194Z,21.53
2023-05-15T12:43:07.233Z,21.84
2023-05-15T12:44:07.223Z,21.96
2023-05-15T12:45:07.352Z,22.21
2023-05-15T12:46:07.238Z,22.15
2023-05-15T12:47:07.542Z,22.04
2023-05-15T12:48:07.647Z,21.88
2023-05-15T12:49:07.602Z,21.80
2023-05-15T12:50:07.665Z,21.74
2023-05-15T12:51:07.542Z,21.43
2023-05-15T12:52:07.636Z,21.34
2023-05-15T12:53:07.652Z,21.43
2023-05-15T12:54:07.658Z,21.75
2023-05-15T12:55:07.283Z,22.12
2023-05-15T12:56:07.708Z,22.23
2023-05-15T12:57:07.212Z,22.27
2023-05-15T12:58:07.725Z,22.27
2023-05-15T12:59:08.608Z,22.21
2023-05-15T13:00:08.640Z,21.53
2023-05-15T13:01:08.545Z,21.69